createdAt,value
2022-09-07T00:00:09.618Z,8.38
2022-09-07T00:02:36.447Z,7.75
2022-09-07T00:05:03.397Z,8.50
2022-09-07T00:07:30.739Z,9.35
2022-09-07T00:09:57.528Z,9.65
2022-09-07T00:12:24.436Z,9.00
2022-09-07T00:14:51.254Z,8.48
2022-09-07T00:17:18.073Z,7.55
2022-09-07T00:19:44.892Z,7.97
2022-09-07T00:22:11.648Z,8.27
2022-09-07T00:24:38.445Z,7.65
2022-09-07T00:27:05.437Z,7.72
2022-09-07T00:29:32.233Z,8.45
2022-09-07T00:31:59.071Z,7.97
2022-09-07T00:34:25.918Z,7.68
2022-09-07T00:36:52.738Z,8.15
2022-09-07T00:39:19.536Z,8.50
2022-09-07T00:41:46.424Z,8.45
2022-09-07T00:44:38.128Z,8.15
2022-09-07T00:47:09.896Z,8.38
2022-09-07T00:49:38.605Z,8.75
2022-09-07T00:52:10.109Z,8.40
2022-09-07T00:54:44.793Z,8.38
2022-09-07T00:57:12.082Z,8.32
2022-09-07T00:59:45.588Z,8.50
2022-09-07T01:02:14.806Z,8.20
2022-09-07T01:04:42.136Z,7.50
2022-09-07T01:07:09.095Z,8.23
2022-09-07T01:09:36.590Z,8.43
2022-09-07T01:12:04.775Z,8.40
2022-09-07T01:14:46.204Z,7.97
2022-09-07T01:17:39.813Z,8.20
2022-09-07T01:20:29.970Z,7.78
2022-09-07T01:23:25.759Z,8.27
2022-09-07T01:26:16.772Z,8.13
2022-09-07T01:28:47.362Z,7.93
2022-09-07T01:31:21.415Z,8.73
2022-09-07T01:33:54.449Z,9.25
2022-09-07T01:36:37.272Z,9.73
2022-09-07T01:39:05.759Z,9.70
2022-09-07T01:41:52.450Z,9.48
2022-09-07T01:44:28.664Z,8.80
2022-09-07T01:47:21.846Z,8.30
2022-09-07T01:49:55.270Z,7.57
2022-09-07T01:52:42.655Z,8.82
2022-09-07T01:55:19.323Z,9.23
2022-09-07T01:57:54.758Z,9.75
2022-09-07T02:00:21.616Z,9.55
2022-09-07T02:02:58.674Z,9.73
2022-09-07T02:05:36.278Z,10.48
2022-09-07T02:08:14.243Z,9.15
2022-09-07T02:10:55.923Z,9.85
2022-09-07T02:13:46.262Z,11.07
2022-09-07T02:16:19.510Z,9.27
2022-09-07T02:18:50.036Z,9.43
2022-09-07T02:21:22.098Z,9.05
2022-09-07T02:23:57.078Z,8.57
2022-09-07T02:26:28.104Z,8.93
2022-09-07T02:28:55.762Z,9.15
2022-09-07T02:31:23.288Z,9.45
2022-09-07T02:33:50.287Z,8.10
2022-09-07T02:36:21.515Z,9.38
2022-09-07T02:38:48.381Z,9.32
2022-09-07T02:41:47.673Z,9.45
2022-09-07T02:44:37.194Z,9.40
2022-09-07T02:47:09.802Z,9.75
2022-09-07T02:50:11.225Z,8.68
2022-09-07T02:52:59.307Z,8.75
2022-09-07T02:55:38.000Z,8.23
2022-09-07T02:58:38.373Z,9.70
2022-09-07T03:01:17.210Z,10.02
2022-09-07T03:03:44.046Z,10.35
2022-09-07T03:06:23.463Z,9.95
2022-09-07T03:08:54.656Z,10.07
2022-09-07T03:11:22.589Z,10.00
2022-09-07T03:13:49.373Z,10.80
2022-09-07T03:16:16.714Z,10.35
2022-09-07T03:18:45.097Z,11.23
2022-09-07T03:21:12.147Z,11.13
2022-09-07T03:23:39.238Z,10.65
2022-09-07T03:26:06.357Z,9.60
2022-09-07T03:28:33.191Z,9.10
2022-09-07T03:31:02.139Z,10.15
2022-09-07T03:33:29.128Z,10.07
2022-09-07T03:36:02.486Z,9.50
2022-09-07T03:38:31.273Z,9.45
2022-09-07T03:41:02.089Z,9.60
2022-09-07T03:43:29.845Z,10.48
2022-09-07T03:46:02.954Z,10.52
2022-09-07T03:48:34.578Z,9.48
2022-09-07T03:51:09.873Z,10.23
2022-09-07T03:53:39.688Z,10.90
2022-09-07T03:56:16.098Z,8.82
2022-09-07T03:58:42.896Z,9.70
2022-09-07T04:01:12.943Z,11.10
2022-09-07T04:03:39.924Z,10.90
2022-09-07T04:06:07.072Z,11.95
2022-09-07T04:08:35.547Z,12.45
2022-09-07T04:11:04.293Z,11.75
2022-09-07T04:13:32.652Z,11.55
2022-09-07T04:15:59.430Z,12.80
2022-09-07T04:18:26.539Z,12.43
2022-09-07T04:20:53.327Z,12.73
2022-09-07T04:23:20.629Z,13.02
2022-09-07T04:25:48.961Z,12.00
2022-09-07T04:28:16.922Z,12.32
2022-09-07T04:30:43.801Z,12.07
2022-09-07T04:33:11.285Z,11.80
2022-09-07T04:35:39.501Z,10.95
2022-09-07T04:38:07.380Z,11.32
2022-09-07T04:40:36.125Z,11.73
2022-09-07T04:43:03.141Z,10.75
2022-09-07T04:45:29.932Z,10.25
2022-09-07T04:47:56.792Z,11.18
2022-09-07T04:50:24.607Z,9.55
2022-09-07T04:52:51.607Z,9.63
2022-09-07T04:55:18.986Z,8.70
2022-09-07T04:57:49.897Z,9.15
2022-09-07T05:00:17.288Z,8.50
2022-09-07T05:02:44.179Z,8.80
2022-09-07T05:05:11.023Z,9.18
2022-09-07T05:07:37.852Z,8.60
2022-09-07T05:10:05.179Z,8.60
2022-09-07T05:12:31.958Z,8.75
2022-09-07T05:14:58.979Z,7.85
2022-09-07T05:17:25.755Z,7.65
2022-09-07T05:19:52.571Z,8.45
2022-09-07T05:22:19.382Z,8.05
2022-09-07T05:24:47.488Z,7.53
2022-09-07T05:27:14.380Z,7.78
2022-09-07T05:32:27.928Z,7.00
2022-09-07T05:34:54.760Z,7.40
2022-09-07T05:37:21.674Z,7.20
2022-09-07T05:39:48.644Z,6.70
2022-09-07T05:42:15.531Z,6.65
2022-09-07T05:49:40.958Z,6.30
2022-09-07T05:52:07.834Z,6.70
2022-09-07T05:54:35.028Z,7.22
2022-09-07T05:57:03.699Z,6.72
2022-09-07T05:59:30.727Z,6.43
2022-09-07T06:01:57.543Z,6.60
2022-09-07T06:04:24.438Z,6.63
2022-09-07T06:07:18.092Z,6.40
2022-09-07T06:12:25.890Z,6.05
2022-09-07T06:14:52.711Z,6.00
2022-09-07T06:17:19.769Z,6.15
2022-09-07T06:19:46.547Z,6.30
2022-09-07T06:22:13.402Z,6.15
2022-09-07T06:24:40.256Z,5.78
2022-09-07T06:27:07.032Z,5.60
2022-09-07T06:29:33.842Z,5.75
2022-09-07T06:34:47.379Z,5.90
2022-09-07T06:37:14.468Z,5.65
2022-09-07T06:39:41.352Z,6.00
2022-09-07T06:42:08.356Z,6.18
2022-09-07T06:44:42.073Z,6.05
2022-09-07T06:47:08.889Z,6.30
2022-09-07T06:49:35.657Z,5.85
2022-09-07T06:52:02.714Z,5.00
2022-09-07T06:57:16.367Z,5.97
2022-09-07T06:59:43.294Z,6.25
2022-09-07T07:02:14.840Z,6.35
2022-09-07T07:07:12.834Z,6.55
2022-09-07T07:09:40.556Z,6.10
2022-09-07T07:12:07.431Z,6.80
2022-09-07T07:14:37.244Z,6.63
2022-09-07T07:17:07.059Z,6.57
2022-09-07T07:19:34.827Z,6.57
2022-09-07T07:24:48.435Z,6.78
2022-09-07T07:27:15.516Z,5.88
2022-09-07T07:29:42.318Z,5.85
2022-09-07T07:32:09.160Z,6.57
2022-09-07T07:34:35.993Z,6.18
2022-09-07T07:37:02.846Z,6.78
2022-09-07T07:42:16.631Z,5.97
2022-09-07T07:44:43.396Z,5.88
2022-09-07T07:47:10.274Z,6.22
2022-09-07T07:49:37.021Z,6.43
2022-09-07T07:54:50.856Z,6.30
2022-09-07T07:57:19.046Z,5.90
2022-09-07T07:59:46.242Z,5.18
2022-09-07T08:02:17.198Z,7.18
2022-09-07T08:04:44.073Z,6.07
2022-09-07T08:07:12.115Z,6.22
2022-09-07T08:09:46.872Z,6.90
2022-09-07T08:12:16.995Z,6.22
2022-09-07T08:14:44.201Z,6.20
2022-09-07T08:17:13.246Z,6.38
2022-09-07T08:19:40.181Z,6.45
2022-09-07T08:22:08.792Z,6.57
2022-09-07T08:24:35.576Z,7.10
2022-09-07T08:27:04.102Z,6.15
2022-09-07T08:29:34.445Z,5.88
2022-09-07T08:32:04.020Z,5.78
2022-09-07T08:34:30.906Z,5.88
2022-09-07T08:36:57.591Z,5.47
2022-09-07T08:39:24.321Z,5.57
2022-09-07T08:42:12.865Z,5.53
2022-09-07T08:45:11.686Z,5.20
2022-09-07T08:47:49.140Z,5.38
2022-09-07T08:50:30.325Z,5.40
2022-09-07T08:52:57.234Z,5.68
2022-09-07T08:55:30.070Z,5.47
2022-09-07T08:58:02.888Z,5.10
2022-09-07T09:00:30.090Z,5.97
2022-09-07T09:06:06.079Z,5.50
2022-09-07T09:09:09.653Z,5.47
2022-09-07T09:11:55.321Z,5.47
2022-09-07T09:14:50.280Z,5.30
2022-09-07T09:17:26.308Z,6.18
2022-09-07T09:20:35.568Z,5.72
2022-09-07T09:23:10.499Z,6.55
2022-09-07T09:25:39.795Z,5.95
2022-09-07T09:28:11.841Z,6.07
2022-09-07T09:30:38.795Z,5.80
2022-09-07T09:33:26.530Z,6.38
2022-09-07T09:35:55.791Z,5.35
2022-09-07T09:38:31.210Z,6.05
2022-09-07T09:41:09.902Z,6.10
2022-09-07T09:43:55.940Z,6.10
2022-09-07T09:46:33.942Z,5.75
2022-09-07T09:49:17.201Z,5.85
2022-09-07T09:54:41.168Z,6.47
2022-09-07T09:57:16.275Z,5.25
2022-09-07T10:00:02.731Z,6.07
2022-09-07T10:05:37.778Z,5.40
2022-09-07T10:08:19.288Z,5.95
2022-09-07T10:10:52.166Z,5.70
2022-09-07T10:13:22.293Z,5.35
2022-09-07T10:15:55.204Z,5.97
2022-09-07T10:18:33.623Z,5.75
2022-09-07T10:21:22.979Z,6.03
2022-09-07T10:24:00.698Z,6.15
2022-09-07T10:26:32.186Z,6.25
2022-09-07T10:29:15.185Z,6.30
2022-09-07T10:31:54.455Z,6.28
2022-09-07T10:34:27.142Z,6.47
2022-09-07T10:37:08.492Z,6.45
2022-09-07T10:39:41.652Z,6.22
2022-09-07T10:42:35.710Z,6.70
2022-09-07T10:45:11.677Z,7.03
2022-09-07T10:48:07.195Z,7.15
2022-09-07T10:50:48.185Z,6.15
2022-09-07T10:53:46.547Z,6.15
2022-09-07T10:56:35.634Z,5.65
2022-09-07T10:59:26.748Z,6.38
2022-09-07T11:01:58.504Z,6.32
2022-09-07T11:05:03.388Z,6.03
2022-09-07T11:07:36.030Z,5.93
2022-09-07T11:10:33.938Z,5.70
2022-09-07T11:13:05.335Z,4.80
2022-09-07T11:15:45.965Z,5.25
2022-09-07T11:18:20.426Z,5.25
2022-09-07T11:20:59.029Z,5.07
2022-09-07T11:23:32.029Z,5.25
2022-09-07T11:26:30.819Z,5.50
2022-09-07T11:32:20.344Z,5.35
2022-09-07T11:34:55.471Z,4.85
2022-09-07T11:37:36.854Z,5.25
2022-09-07T11:40:17.231Z,5.50
2022-09-07T11:43:05.437Z,5.03
2022-09-07T11:45:49.666Z,5.30
2022-09-07T11:48:43.649Z,4.85
2022-09-07T11:51:25.532Z,5.28
2022-09-07T11:54:00.920Z,5.15
2022-09-07T11:56:38.352Z,5.32
2022-09-07T11:59:05.004Z,5.22
2022-09-07T12:01:50.518Z,5.47
2022-09-07T12:04:46.607Z,4.95
2022-09-07T12:07:30.544Z,5.00
2022-09-07T12:10:25.857Z,4.75
2022-09-07T12:13:31.215Z,5.20
2022-09-07T12:16:07.821Z,4.88
2022-09-07T12:19:05.632Z,4.95
2022-09-07T12:21:38.360Z,4.68
2022-09-07T12:24:25.083Z,4.72
2022-09-07T12:26:52.542Z,5.10
2022-09-07T12:29:25.079Z,4.53
2022-09-07T12:32:52.567Z,5.07
2022-09-07T12:34:52.887Z,5.25
2022-09-07T12:37:37.753Z,5.50
2022-09-07T12:40:33.259Z,5.05
2022-09-07T12:43:14.944Z,5.78
2022-09-07T12:48:15.007Z,5.10
2022-09-07T12:51:03.455Z,5.25
2022-09-07T12:53:56.937Z,4.88
2022-09-07T13:00:08.435Z,5.03
2022-09-07T13:03:06.046Z,5.07
2022-09-07T13:05:39.055Z,4.88
2022-09-07T13:08:31.292Z,5.22
2022-09-07T13:11:22.163Z,5.18
2022-09-07T13:14:03.842Z,5.35
2022-09-07T13:19:47.005Z,4.88
2022-09-07T13:22:32.346Z,4.82
2022-09-07T13:25:01.492Z,4.70
2022-09-07T13:28:04.383Z,4.70
2022-09-07T13:30:54.815Z,4.53
2022-09-07T13:33:24.697Z,4.43
2022-09-07T13:36:03.041Z,4.47
2022-09-07T13:38:31.807Z,4.25
2022-09-07T13:41:06.384Z,4.70
2022-09-07T13:43:34.902Z,4.78
2022-09-07T13:46:09.381Z,4.30
2022-09-07T13:48:49.787Z,4.80
2022-09-07T13:51:43.246Z,4.95
2022-09-07T13:54:37.847Z,4.60
2022-09-07T13:57:20.173Z,4.63
2022-09-07T13:59:50.809Z,4.30
2022-09-07T14:02:32.348Z,4.73
2022-09-07T14:05:00.604Z,4.85
2022-09-07T14:07:29.730Z,4.57
2022-09-07T14:10:11.569Z,4.50
2022-09-07T14:12:44.519Z,5.43
2022-09-07T14:15:21.017Z,5.18
2022-09-07T14:17:48.940Z,4.70
2022-09-07T14:20:18.041Z,5.00
2022-09-07T14:22:48.350Z,4.60
2022-09-07T14:25:19.109Z,5.53
2022-09-07T14:27:47.890Z,4.47
2022-09-07T14:30:16.285Z,4.50
2022-09-07T14:32:44.115Z,4.25
2022-09-07T14:35:15.778Z,4.38
2022-09-07T14:40:22.138Z,5.40
2022-09-07T14:42:50.095Z,4.55
2022-09-07T14:45:22.818Z,4.85
2022-09-07T14:47:55.343Z,4.70
2022-09-07T14:50:33.808Z,4.63
2022-09-07T14:56:02.241Z,4.10
2022-09-07T14:58:32.570Z,4.47
2022-09-07T15:04:01.963Z,4.13
2022-09-07T15:09:28.216Z,3.90
2022-09-07T15:12:27.182Z,4.22
2022-09-07T15:15:21.447Z,3.97
2022-09-07T15:17:48.719Z,4.40
2022-09-07T15:20:32.577Z,4.38
2022-09-07T15:22:59.545Z,5.00
2022-09-07T15:25:26.256Z,4.55
2022-09-07T15:27:54.506Z,4.43
2022-09-07T15:30:21.171Z,4.35
2022-09-07T15:32:47.921Z,4.32
2022-09-07T15:35:15.862Z,4.63
2022-09-07T15:40:33.265Z,4.60
2022-09-07T15:43:00.705Z,4.40
2022-09-07T15:45:27.827Z,4.15
2022-09-07T15:47:54.713Z,4.30
2022-09-07T15:50:23.252Z,4.40
2022-09-07T15:52:50.177Z,4.45
2022-09-07T15:55:17.389Z,4.60
2022-09-07T15:57:48.790Z,4.30
2022-09-07T16:00:17.623Z,4.75
2022-09-07T16:05:31.687Z,4.60
2022-09-07T16:10:55.957Z,4.32
2022-09-07T16:13:24.354Z,4.47
2022-09-07T16:15:51.568Z,4.70
2022-09-07T16:18:18.672Z,4.43
2022-09-07T16:20:45.736Z,11.45
2022-09-07T16:23:15.144Z,22.17
2022-09-07T16:25:54.224Z,10.45
2022-09-07T16:28:21.065Z,5.38
2022-09-07T16:30:48.146Z,5.45
2022-09-07T16:33:15.263Z,10.35
2022-09-07T16:35:42.252Z,7.22
2022-09-07T16:40:55.874Z,5.25
2022-09-07T16:43:23.021Z,5.25
2022-09-07T16:46:03.967Z,5.20
2022-09-07T16:48:33.053Z,5.47
2022-09-07T16:51:02.668Z,5.90
2022-09-07T16:53:31.359Z,13.23
2022-09-07T16:56:12.305Z,7.50
2022-09-07T16:58:44.571Z,6.40
2022-09-07T17:01:14.873Z,5.68
2022-09-07T17:03:42.663Z,5.43
2022-09-07T17:06:11.429Z,5.32
2022-09-07T17:08:39.900Z,5.97
2022-09-07T17:11:10.327Z,5.40
2022-09-07T17:13:39.067Z,5.38
2022-09-07T17:16:08.388Z,4.88
2022-09-07T17:21:23.117Z,13.68
2022-09-07T17:23:55.117Z,5.93
2022-09-07T17:26:26.035Z,5.88
2022-09-07T17:29:00.248Z,5.33
2022-09-07T17:34:20.082Z,5.22
2022-09-07T17:36:47.225Z,5.78
2022-09-07T17:39:16.458Z,5.20
2022-09-07T17:41:45.239Z,5.72
2022-09-07T17:44:12.072Z,5.35
2022-09-07T17:46:39.135Z,5.78
2022-09-07T17:49:10.139Z,5.78
2022-09-07T17:51:37.260Z,6.33
2022-09-07T17:54:10.268Z,5.60
2022-09-07T17:56:39.044Z,5.93
2022-09-07T18:01:54.204Z,6.13
2022-09-07T18:04:21.802Z,6.78
2022-09-07T18:06:49.004Z,14.13
2022-09-07T18:09:15.811Z,17.55
2022-09-07T18:11:47.100Z,10.63
2022-09-07T18:14:15.417Z,6.88
2022-09-07T18:16:44.983Z,5.95
2022-09-07T18:19:12.822Z,6.07
2022-09-07T18:21:42.110Z,6.00
2022-09-07T18:24:13.995Z,6.07
2022-09-07T18:26:41.212Z,6.38
2022-09-07T18:29:19.243Z,6.53
2022-09-07T18:31:55.273Z,6.00
2022-09-07T18:34:22.399Z,6.47
2022-09-07T18:36:49.162Z,6.30
2022-09-07T18:39:16.180Z,6.40
2022-09-07T18:41:43.027Z,6.40
2022-09-07T18:46:56.542Z,7.22
2022-09-07T18:49:23.579Z,6.57
2022-09-07T18:54:38.575Z,6.28
2022-09-07T18:57:06.669Z,7.05
2022-09-07T18:59:33.880Z,7.75
2022-09-07T19:02:04.242Z,7.63
2022-09-07T19:07:20.603Z,6.82
2022-09-07T19:09:48.367Z,7.35
2022-09-07T19:12:15.724Z,7.25
2022-09-07T19:14:42.637Z,7.15
2022-09-07T19:17:12.834Z,7.03
2022-09-07T19:19:40.046Z,6.95
2022-09-07T19:22:06.723Z,7.82
2022-09-07T19:24:33.569Z,7.07
2022-09-07T19:27:01.075Z,7.07
2022-09-07T19:29:28.672Z,6.75
2022-09-07T19:32:04.823Z,7.35
2022-09-07T19:34:36.757Z,7.47
2022-09-07T19:37:07.045Z,7.43
2022-09-07T19:39:34.425Z,7.57
2022-09-07T19:42:03.816Z,7.60
2022-09-07T19:44:31.047Z,7.22
2022-09-07T19:46:57.990Z,7.38
2022-09-07T19:49:24.775Z,7.70
2022-09-07T19:51:52.150Z,7.55
2022-09-07T19:54:19.294Z,6.82
2022-09-07T19:56:46.298Z,7.28
2022-09-07T19:59:14.047Z,7.20
2022-09-07T20:01:45.895Z,7.18
2022-09-07T20:06:48.149Z,7.72
2022-09-07T20:09:14.948Z,7.68
2022-09-07T20:11:46.130Z,7.07
2022-09-07T20:14:14.702Z,7.22
2022-09-07T20:16:41.872Z,7.63
2022-09-07T20:19:11.037Z,7.78
2022-09-07T20:21:37.974Z,8.15
2022-09-07T20:24:04.834Z,7.80
2022-09-07T20:26:32.524Z,7.70
2022-09-07T20:29:16.727Z,8.65
2022-09-07T20:31:47.310Z,8.68
2022-09-07T20:34:14.411Z,12.60
2022-09-07T20:36:41.425Z,8.40
2022-09-07T20:39:08.677Z,8.98
2022-09-07T20:41:35.440Z,9.13
2022-09-07T20:44:04.199Z,8.68
2022-09-07T20:46:31.639Z,7.93
2022-09-07T20:48:58.838Z,9.13
2022-09-07T20:51:26.092Z,8.32
2022-09-07T20:53:53.351Z,9.05
2022-09-07T20:56:25.913Z,8.98
2022-09-07T20:59:00.487Z,9.18
2022-09-07T21:01:28.947Z,9.38
2022-09-07T21:03:58.073Z,9.70
2022-09-07T21:06:26.359Z,9.50
2022-09-07T21:08:54.670Z,10.15
2022-09-07T21:11:33.654Z,9.95
2022-09-07T21:14:08.524Z,10.25
2022-09-07T21:16:36.408Z,9.02
2022-09-07T21:19:05.945Z,9.40
2022-09-07T21:21:39.162Z,8.68
2022-09-07T21:24:07.885Z,8.27
2022-09-07T21:26:35.028Z,8.55
2022-09-07T21:29:05.053Z,8.27
2022-09-07T21:31:33.631Z,8.65
2022-09-07T21:34:01.743Z,8.98
2022-09-07T21:36:29.347Z,9.38
2022-09-07T21:38:56.719Z,8.63
2022-09-07T21:41:25.285Z,9.90
2022-09-07T21:43:59.624Z,9.52
2022-09-07T21:46:27.378Z,10.18
2022-09-07T21:48:55.860Z,9.23
2022-09-07T21:51:24.182Z,8.75
2022-09-07T21:53:55.600Z,9.00
2022-09-07T21:56:22.369Z,9.52
2022-09-07T21:58:53.987Z,9.82
2022-09-07T22:01:21.569Z,10.82
2022-09-07T22:03:52.880Z,9.63
2022-09-07T22:06:19.622Z,10.03
2022-09-07T22:08:46.708Z,11.48
2022-09-07T22:11:17.436Z,11.00
2022-09-07T22:13:44.681Z,11.25
2022-09-07T22:16:12.661Z,11.80
2022-09-07T22:18:43.557Z,11.77
2022-09-07T22:21:16.135Z,11.75
2022-09-07T22:23:48.802Z,11.50
2022-09-07T22:26:19.438Z,11.68
2022-09-07T22:28:46.827Z,11.60
2022-09-07T22:31:17.245Z,11.75
2022-09-07T22:33:45.403Z,10.20
2022-09-07T22:36:24.107Z,10.98
2022-09-07T22:38:53.273Z,10.93
2022-09-07T22:41:23.131Z,12.15
2022-09-07T22:43:51.073Z,11.40
2022-09-07T22:46:20.464Z,11.15
2022-09-07T22:48:47.436Z,11.13
2022-09-07T22:51:14.576Z,11.73
2022-09-07T22:53:43.066Z,11.20
2022-09-07T22:56:18.594Z,10.93
2022-09-07T22:58:49.853Z,11.10
2022-09-07T23:01:16.851Z,11.37
2022-09-07T23:03:44.678Z,9.90
2022-09-07T23:06:30.426Z,10.93
2022-09-07T23:08:59.631Z,10.50
2022-09-07T23:11:26.894Z,10.90
2022-09-07T23:13:55.898Z,10.68
2022-09-07T23:16:22.862Z,11.80
2022-09-07T23:18:49.984Z,10.32
2022-09-07T23:21:17.121Z,11.13
2022-09-07T23:23:44.479Z,10.82
2022-09-07T23:26:11.387Z,10.45
2022-09-07T23:28:38.077Z,9.95
2022-09-07T23:31:04.910Z,10.75
2022-09-07T23:33:31.899Z,11.25
2022-09-07T23:36:04.659Z,9.98
2022-09-07T23:38:32.485Z,11.38
2022-09-07T23:41:00.602Z,11.50
2022-09-07T23:43:28.761Z,11.02
2022-09-07T23:45:56.401Z,11.23
2022-09-07T23:48:23.747Z,11.95
2022-09-07T23:50:50.494Z,11.52
2022-09-07T23:53:18.132Z,11.68
2022-09-07T23:55:46.010Z,11.57
2022-09-07T23:58:12.770Z,12.00
